Time;durP1;ratioP1;P1;durP2;ratioP2;P2;SDS_P1;SDS_P2;PMS_P1;PMS_P2;Temp;Humidity;BMP_temperature;BMP_pressure;BME280_temperature;BME280_humidity;BME280_pressure;Samples;Min_cycle;Max_cycle;Signal;HPM_P1;HPM_P2
2023/06/11 07:01:41;;;;;;;0.45;0.40;;;33.50;99.90;37.10;101364.00;;;;6309446;22;20183;-69
2023/06/11 07:04:25;;;;;;;1.80;1.70;;;33.50;99.90;36.00;101361.00;;;;6281891;22;20156;-69
2023/06/11 07:06:51;;;;;;;2.35;1.75;;;32.70;99.90;37.00;101346.00;;;;6309628;22;20544;-69
2023/06/11 07:09:17;;;;;;;2.00;1.90;;;32.70;99.90;36.20;101357.00;;;;6256644;22;20180;-68
2023/06/11 07:11:55;;;;;;;0.77;0.77;;;32.70;99.90;36.60;101345.00;;;;6282418;22;20175;-69
2023/06/11 07:14:41;;;;;;;0.22;0.22;;;32.90;99.90;36.40;101359.00;;;;6281863;22;20219;-69
2023/06/11 07:17:33;;;;;;;0.13;0.13;;;32.70;99.90;36.50;101361.00;;;;6281766;22;20163;-69
2023/06/11 07:20:13;;;;;;;0.28;0.28;;;32.60;99.90;36.30;101358.00;;;;6260361;22;20141;-68
2023/06/11 07:22:42;;;;;;;0.45;0.45;;;32.80;99.90;37.50;101346.00;;;;6308851;22;20603;-68
2023/06/11 07:25:18;;;;;;;0.38;0.38;;;33.10;99.90;38.50;101330.00;;;;6281623;22;20141;-70
2023/06/11 07:27:43;;;;;;;0.50;0.50;;;33.80;99.90;36.50;101345.00;;;;6256297;22;20156;-70
2023/06/11 07:30:11;;;;;;;0.82;0.82;;;33.40;99.90;37.30;101338.00;;;;6281685;22;20579;-70
2023/06/11 07:32:40;;;;;;;1.92;1.83;;;33.40;99.90;37.60;101305.00;;;;6282226;22;20606;-70
2023/06/11 07:35:21;;;;;;;2.17;2.05;;;33.40;99.90;35.50;101358.00;;;;6308330;22;20168;-70
2023/06/11 07:37:47;;;;;;;0.10;0.10;;;32.40;99.90;36.50;101348.00;;;;6281739;22;20186;-70
2023/06/11 07:40:15;;;;;;;2.63;0.55;;;32.60;99.90;34.30;101383.00;;;;6281780;22;20156;-70
2023/06/11 07:42:45;;;;;;;0.25;0.25;;;31.80;99.90;35.70;101373.00;;;;6282229;22;20172;-70
2023/06/11 07:45:14;;;;;;;0.57;0.55;;;31.70;99.90;36.90;101328.00;;;;6281883;22;20454;-70
2023/06/11 07:48:09;;;;;;;0.60;0.60;;;33.10;99.90;37.30;101349.00;;;;6281728;22;20148;-70
2023/06/11 07:50:38;;;;;;;1.10;1.08;;;33.50;99.90;35.60;101370.00;;;;6256007;22;20156;-70
2023/06/11 07:53:08;;;;;;;1.70;1.60;;;33.30;99.90;35.20;101385.00;;;;6308697;22;20144;-70
2023/06/11 07:55:34;;;;;;;1.38;1.27;;;32.60;99.90;36.80;101328.00;;;;6281061;22;20148;-69
2023/06/11 07:58:03;;;;;;;0.10;0.10;;;33.10;99.90;36.80;101369.00;;;;6256163;22;20161;-69
2023/06/11 08:00:47;;;;;;;0.60;0.60;;;33.10;99.90;38.30;101349.00;;;;6275826;22;20204;-70
2023/06/11 08:03:13;;;;;;;0.10;0.10;;;33.90;99.90;37.90;101359.00;;;;6275940;22;20546;-69
2023/06/11 08:05:38;;;;;;;0.28;0.13;;;34.10;99.90;38.50;101335.00;;;;6276421;22;20152;-69
2023/06/11 08:08:18;;;;;;;0.10;0.10;;;34.40;99.90;38.50;101326.00;;;;6250861;22;20149;-69
2023/06/11 08:10:50;;;;;;;0.22;0.22;;;34.60;99.90;37.60;101337.00;;;;6276568;22;20228;-70
2023/06/11 08:13:16;;;;;;;1.38;1.38;;;34.20;99.90;39.00;101331.00;;;;6276433;22;20191;-69
2023/06/11 08:16:07;;;;;;;1.13;1.08;;;35.00;99.90;38.50;101328.00;;;;6250514;22;20157;-69
2023/06/11 08:18:31;;;;;;;0.47;0.47;;;34.70;99.90;38.50;101336.00;;;;6274296;22;20600;-67
2023/06/11 08:21:05;;;;;;;0.28;0.28;;;35.40;99.90;39.20;101348.00;;;;6278020;22;20148;-72
2023/06/11 08:23:34;;;;;;;0.45;0.45;;;35.40;99.90;40.10;101332.00;;;;6251294;22;20182;-71
2023/06/11 08:26:00;;;;;;;0.35;0.35;;;35.70;99.90;38.70;101403.00;;;;6276545;22;20266;-72
2023/06/11 08:28:35;;;;;;;2.17;0.90;;;35.40;99.70;35.20;101428.00;;;;6275931;22;20612;-71
2023/06/11 08:31:01;;;;;;;1.08;0.80;;;34.10;99.90;37.30;101418.00;;;;6276248;22;20171;-71
2023/06/11 08:33:30;;;;;;;1.25;1.20;;;34.10;99.90;35.50;101418.00;;;;6275652;22;20161;-70
2023/06/11 08:36:13;;;;;;;2.78;2.05;;;33.40;99.90;36.80;101416.00;;;;6276497;22;20569;-71
2023/06/11 08:38:42;;;;;;;0.32;0.32;;;33.60;99.90;37.00;101345.00;;;;6277645;22;20519;-71
2023/06/11 08:41:20;;;;;;;0.95;0.95;;;33.50;99.90;37.70;101416.00;;;;6277399;22;20145;-71
2023/06/11 08:43:46;;;;;;;1.67;1.17;;;34.00;99.90;36.90;101413.00;;;;6250452;22;20184;-73
2023/06/11 08:46:16;;;;;;;0.90;0.90;;;34.10;99.90;37.60;101415.00;;;;6275948;22;20149;-71
2023/06/11 08:49:26;;;;;;;2.72;1.25;;;33.70;99.90;36.20;101422.00;;;;6276294;22;20558;-71
2023/06/11 08:52:23;;;;;;;0.45;0.45;;;33.90;99.90;38.70;101404.00;;;;6277714;22;20242;-69
2023/06/11 08:55:10;;;;;;;1.25;1.15;;;34.30;99.90;38.80;101376.00;;;;6264447;22;20169;-70
2023/06/11 08:57:43;;;;;;;0.90;0.90;;;35.00;99.90;37.40;101420.00;;;;6275928;22;20145;-71
2023/06/11 09:00:34;;;;;;;0.10;0.10;;;34.40;99.90;38.10;101408.00;;;;6275563;22;20592;-71
2023/06/11 09:03:04;;;;;;;0.63;0.40;;;34.10;99.90;38.80;101398.00;;;;6277352;22;20177;-71
2023/06/11 09:05:57;;;;;;;2.28;0.95;;;34.80;99.90;39.80;101393.00;;;;6250841;22;20487;-71
2023/06/11 09:09:02;;;;;;;1.83;1.55;;;35.40;99.90;40.80;101386.00;;;;6250310;22;20256;-71
2023/06/11 09:12:32;;;;;;;0.40;0.40;;;36.20;99.10;39.30;101410.00;;;;6275388;22;20183;-71
2023/06/11 09:15:58;;;;;;;0.50;0.50;;;36.50;97.40;40.40;101404.00;;;;6275779;22;20141;-71
2023/06/11 09:19:17;;;;;;;0.70;0.57;;;35.90;99.00;37.00;101424.00;;;;6274199;22;20164;-71
2023/06/11 09:21:51;;;;;;;0.47;0.47;;;35.30;99.10;39.50;101385.00;;;;6274131;22;20575;-71
2023/06/11 09:24:35;;;;;;;0.10;0.10;;;35.40;99.40;39.40;101385.00;;;;6277535;22;20137;-73
2023/06/11 09:27:24;;;;;;;0.68;0.68;;;35.70;99.10;41.30;101385.00;;;;6275108;22;20167;-72
2023/06/11 09:30:17;;;;;;;0.57;0.57;;;36.50;98.30;39.50;101422.00;;;;6248683;22;20168;-72
2023/06/11 09:32:54;;;;;;;0.00;0.00;;;37.10;97.30;37.30;101408.00;;;;6276619;22;20149;-71
2023/06/11 09:35:29;;;;;;;0.95;0.95;;;34.90;98.20;36.90;101423.00;;;;6275914;22;20223;-72
2023/06/11 09:38:00;;;;;;;4.57;0.95;;;34.70;98.10;37.00;101401.00;;;;6277215;22;20153;-71
2023/06/11 09:40:33;;;;;;;0.47;0.47;;;33.40;98.90;37.50;101415.00;;;;6248822;22;20482;-72
2023/06/11 09:43:12;;;;;;;1.65;1.55;;;34.10;98.90;35.40;101426.00;;;;6275216;22;20310;-72
2023/06/11 09:45:44;;;;;;;1.92;1.73;;;33.70;98.70;37.40;101416.00;;;;6276640;22;20141;-72
2023/06/11 09:48:31;;;;;;;1.85;1.75;;;33.60;99.00;37.80;101423.00;;;;6249850;22;20210;-73
2023/06/11 09:51:05;;;;;;;0.30;0.30;;;33.90;98.60;38.60;101402.00;;;;6274671;22;20484;-72
2023/06/11 09:54:13;;;;;;;0.75;0.75;;;34.40;98.90;39.10;101412.00;;;;6274762;22;20156;-72
2023/06/11 09:56:59;;;;;;;2.63;1.35;;;35.20;96.90;39.30;101396.00;;;;6257133;22;20156;-73
2023/06/11 09:59:25;;;;;;;0.82;0.82;;;35.60;97.00;38.20;101404.00;;;;6249132;22;20542;-72
2023/06/11 10:02:12;;;;;;;0.22;0.22;;;34.70;97.10;38.00;101408.00;;;;6275335;22;20167;-74
2023/06/11 10:04:55;;;;;;;0.40;0.40;;;34.20;98.10;39.30;101398.00;;;;6274986;22;20149;-72
2023/06/11 10:08:01;;;;;;;0.90;0.90;;;35.00;97.80;36.90;101412.00;;;;6275037;22;20152;-72
2023/06/11 10:10:54;;;;;;;1.52;1.42;;;34.70;97.00;36.40;101423.00;;;;6277020;22;20155;-70
2023/06/11 10:14:00;;;;;;;1.30;1.20;;;34.10;97.20;35.40;101432.00;;;;6274656;22;20164;-69
2023/06/11 10:16:50;;;;;;;1.92;1.83;;;33.30;98.20;34.30;101427.00;;;;6274473;22;20537;-67
2023/06/11 10:19:23;;;;;;;2.53;2.20;;;32.40;98.50;35.00;101427.00;;;;6274998;22;20137;-69
2023/06/11 10:33:35;;;;;;;0.98;0.98;;;33.00;97.90;36.00;101386.00;;;;5109422;27;21080;-70
2023/06/11 10:36:37;;;;;;;0.80;0.75;;;33.10;98.60;37.00;101400.00;;;;5089393;28;20211;-70
2023/06/11 10:39:22;;;;;;;0.90;0.82;;;33.70;98.00;37.70;101403.00;;;;5087408;28;20188;-70
2023/06/11 10:42:08;;;;;;;1.88;1.52;;;33.90;97.60;37.80;101406.00;;;;5087243;28;20191;-70
2023/06/11 10:45:04;;;;;;;0.65;0.65;;;34.10;97.30;37.50;101398.00;;;;5083041;28;20200;-70
2023/06/11 10:47:47;;;;;;;0.20;0.20;;;33.70;97.50;39.00;101395.00;;;;5085754;28;20604;-70
2023/06/11 10:50:31;;;;;;;0.40;0.40;;;34.60;97.30;38.00;101403.00;;;;5088662;28;20187;-70
2023/06/11 10:53:41;;;;;;;0.25;0.25;;;35.00;96.70;39.10;101385.00;;;;5089201;28;20701;-70
2023/06/11 10:56:39;;;;;;;0.45;0.45;;;35.20;97.00;38.80;101387.00;;;;5083776;28;20651;-70
2023/06/11 10:59:33;;;;;;;0.73;0.73;;;35.30;96.10;37.40;101409.00;;;;5080558;28;20220;-70
2023/06/11 11:02:37;;;;;;;0.10;0.10;;;34.60;96.50;38.50;101386.00;;;;5089828;28;20193;-70
2023/06/11 11:05:15;;;;;;;0.10;0.10;;;35.20;96.10;39.10;101382.00;;;;5065998;28;20177;-70
2023/06/11 11:07:48;;;;;;;1.00;1.00;;;35.10;96.20;39.00;101391.00;;;;5089105;28;20185;-70
2023/06/11 11:10:19;;;;;;;0.90;0.90;;;35.40;95.50;38.40;101389.00;;;;5080328;28;20294;-70
2023/06/11 11:12:48;;;;;;;0.40;0.40;;;35.40;95.50;38.30;101391.00;;;;5088625;28;20205;-70
2023/06/11 11:15:41;;;;;;;1.40;1.30;;;35.20;96.00;39.10;101366.00;;;;5087720;28;20723;-73
2023/06/11 11:18:30;;;;;;;0.65;0.65;;;35.70;96.00;39.10;101390.00;;;;5085150;28;20217;-67
2023/06/11 11:21:21;;;;;;;1.38;1.27;;;35.80;95.50;39.70;101384.00;;;;5081512;28;20275;-68
2023/06/11 11:24:12;;;;;;;0.60;0.60;;;35.70;95.40;38.60;101384.00;;;;5087796;28;20187;-69
2023/06/11 11:26:46;;;;;;;0.90;0.90;;;35.50;95.20;39.90;101387.00;;;;5086129;28;20611;-69
2023/06/11 11:29:14;;;;;;;0.50;0.50;;;36.30;94.50;39.30;101384.00;;;;5087493;28;20188;-69
2023/06/11 11:31:44;;;;;;;0.10;0.10;;;36.00;94.90;40.30;101376.00;;;;5087590;28;20208;-69
2023/06/11 11:34:10;;;;;;;0.75;0.75;;;36.50;94.70;40.20;101377.00;;;;5088019;28;20574;-69
2023/06/11 11:36:45;;;;;;;0.45;0.45;;;36.60;94.10;40.60;101390.00;;;;5088522;28;20181;-69
2023/06/11 11:39:13;;;;;;;2.97;2.78;;;37.10;93.50;40.30;101377.00;;;;5087537;28;20181;-69
2023/06/11 11:41:50;;;;;;;1.10;1.00;;;37.30;93.50;37.70;101387.00;;;;5067783;28;20186;-69
2023/06/11 11:44:20;;;;;;;1.95;1.77;;;36.00;94.00;36.90;101399.00;;;;5056905;28;20224;-69
2023/06/11 11:46:47;;;;;;;1.42;1.25;;;35.30;93.70;38.60;101391.00;;;;5058166;28;20239;-69
2023/06/11 11:49:13;;;;;;;0.50;0.50;;;35.00;94.00;37.50;101371.00;;;;5075909;28;20186;-69
2023/06/11 11:51:51;;;;;;;1.88;1.70;;;34.50;94.50;37.20;101332.00;;;;5074461;28;20193;-69
2023/06/11 11:54:21;;;;;;;3.35;2.38;;;34.10;95.00;37.60;101389.00;;;;5074251;28;20185;-69
2023/06/11 11:56:47;;;;;;;0.47;0.47;;;34.10;94.80;34.60;101395.00;;;;5074405;28;20185;-70
2023/06/11 11:59:22;;;;;;;1.70;1.55;;;33.10;95.60;35.40;101393.00;;;;5071241;28;20186;-70
2023/06/11 12:02:02;;;;;;;2.22;2.05;;;32.90;96.10;34.40;101393.00;;;;5064831;28;20189;-68
2023/06/11 12:04:57;;;;;;;1.42;1.25;;;32.40;96.00;36.20;101378.00;;;;5057254;28;20561;-68
2023/06/11 12:07:53;;;;;;;0.50;0.50;;;32.60;96.30;36.80;101372.00;;;;5070015;28;20194;-68
2023/06/11 12:10:19;;;;;;;1.08;0.95;;;33.00;95.30;37.30;101337.00;;;;5071978;28;20193;-68
2023/06/11 12:12:51;;;;;;;0.17;0.17;;;33.30;94.90;36.50;101374.00;;;;5074667;28;20209;-68
2023/06/11 12:15:57;;;;;;;0.22;0.22;;;33.10;95.40;37.70;101363.00;;;;5073401;28;20220;-68
2023/06/11 12:18:41;;;;;;;0.47;0.47;;;33.30;95.90;38.20;101363.00;;;;5072696;28;20213;-68
2023/06/11 12:21:13;;;;;;;0.85;0.82;;;34.10;95.80;37.00;101367.00;;;;5057828;28;20285;-68
2023/06/11 12:23:50;;;;;;;0.57;0.57;;;33.80;95.40;36.60;101363.00;;;;5098906;28;20193;-68
2023/06/11 12:26:19;;;;;;;1.63;1.52;;;33.40;95.70;36.90;101369.00;;;;5073597;28;20181;-68
2023/06/11 12:31:34;;;;;;;1.30;1.20;;;33.30;95.00;36.90;101347.00;;;;5065241;28;20247;-68
2023/06/11 12:34:00;;;;;;;1.40;1.30;;;33.20;94.50;36.30;101326.00;;;;5056884;28;20213;-68
2023/06/11 12:36:45;;;;;;;1.17;1.15;;;33.10;96.00;36.00;101359.00;;;;5073238;28;20189;-69
2023/06/11 12:39:11;;;;;;;1.17;0.73;;;32.60;95.50;36.10;101367.00;;;;5074017;28;20190;-68
2023/06/11 12:41:37;;;;;;;1.75;1.65;;;32.60;95.30;36.80;101360.00;;;;5057003;28;20200;-68
2023/06/11 12:44:03;;;;;;;1.10;1.10;;;32.80;95.30;36.00;101323.00;;;;5073565;28;20212;-68
2023/06/11 12:46:30;;;;;;;1.83;1.23;;;32.70;95.10;37.00;101352.00;;;;5074978;28;20178;-68
2023/06/11 12:48:57;;;;;;;0.40;0.40;;;32.70;95.40;36.60;101345.00;;;;5072944;28;20514;-69
2023/06/11 12:51:26;;;;;;;0.57;0.57;;;32.80;94.50;36.30;101349.00;;;;5073206;28;20682;-68
2023/06/11 12:53:52;;;;;;;0.17;0.10;;;32.60;94.40;36.00;101310.00;;;;5065337;28;20248;-68
2023/06/11 12:56:23;;;;;;;2.03;1.30;;;32.60;95.30;34.90;101363.00;;;;5072003;28;20188;-68
2023/06/11 12:59:15;;;;;;;0.50;0.50;;;32.30;95.70;35.70;101344.00;;;;5072523;28;20185;-69
2023/06/11 13:01:41;;;;;;;2.10;1.33;;;32.30;95.20;36.30;101336.00;;;;5072131;28;20221;-69
2023/06/11 13:04:07;;;;;;;0.40;0.40;;;32.30;94.60;37.00;101331.00;;;;5073305;28;20173;-69
2023/06/11 13:06:35;;;;;;;1.08;1.08;;;32.80;95.00;35.90;101339.00;;;;5056125;28;20185;-68
2023/06/11 13:09:01;;;;;;;0.55;0.55;;;32.80;94.60;34.90;101342.00;;;;5068724;28;20559;-68
2023/06/11 13:11:30;;;;;;;1.63;1.45;;;32.20;94.90;35.70;101338.00;;;;5072011;28;20290;-69
2023/06/11 13:13:56;;;;;;;0.80;0.80;;;32.30;95.00;35.10;101336.00;;;;5074342;28;20267;-68
2023/06/11 13:16:25;;;;;;;0.88;0.88;;;32.30;95.30;35.50;101341.00;;;;5073440;28;20342;-68
2023/06/11 13:19:17;;;;;;;0.28;0.28;;;32.30;94.00;36.00;101322.00;;;;5073024;28;20190;-68
2023/06/11 13:21:47;;;;;;;0.22;0.22;;;32.30;94.50;36.90;101327.00;;;;5081179;28;20567;-69
2023/06/11 13:24:26;;;;;;;0.57;0.57;;;32.60;94.60;36.80;101315.00;;;;5069210;28;20315;-69
2023/06/11 13:27:00;;;;;;;0.52;0.32;;;32.90;94.70;36.90;101319.00;;;;5067644;28;20188;-69
2023/06/11 13:29:33;;;;;;;0.28;0.28;;;32.70;95.00;37.00;101308.00;;;;5072429;28;20318;-70
2023/06/11 13:32:35;;;;;;;1.20;0.60;;;33.00;93.90;37.30;101306.00;;;;5071595;28;20684;-69
2023/06/11 13:35:01;;;;;;;0.73;0.73;;;33.20;95.30;37.40;101294.00;;;;5072656;28;20173;-68
2023/06/11 13:37:38;;;;;;;0.20;0.20;;;33.30;94.40;37.10;101309.00;;;;5071832;28;20185;-68
2023/06/11 13:40:05;;;;;;;0.10;0.10;;;33.30;93.10;37.90;101301.00;;;;5072444;28;20173;-68
2023/06/11 13:43:06;;;;;;;0.30;0.30;;;33.50;93.40;38.20;101302.00;;;;5072688;28;20189;-68
2023/06/11 13:45:35;;;;;;;0.68;0.68;;;33.80;94.20;36.50;101310.00;;;;5065074;28;20181;-68
2023/06/11 13:48:31;;;;;;;2.83;2.63;;;33.60;93.50;35.00;101317.00;;;;5072761;28;20743;-68
2023/06/11 13:51:20;;;;;;;0.50;0.50;;;32.80;93.80;36.00;101291.00;;;;5071825;28;20585;-68
2023/06/11 13:54:42;;;;;;;2.97;1.35;;;32.50;94.10;36.90;101323.00;;;;5071931;28;20185;-68
2023/06/11 13:57:37;;;;;;;0.10;0.10;;;32.80;93.80;36.30;101300.00;;;;5068344;28;20303;-68
2023/06/11 14:00:15;;;;;;;1.90;1.52;;;32.50;93.60;36.20;101314.00;;;;5058559;28;20182;-68
2023/06/11 14:03:10;;;;;;;0.28;0.28;;;32.60;93.30;36.70;101312.00;;;;5071863;28;20196;-68
2023/06/11 14:05:36;;;;;;;1.60;1.50;;;32.80;92.70;36.00;101299.00;;;;5052330;28;20707;-69
2023/06/11 14:08:30;;;;;;;0.90;0.90;;;32.60;93.00;36.50;101310.00;;;;5071633;28;20268;-69
2023/06/11 14:11:24;;;;;;;0.85;0.60;;;32.80;93.70;36.00;101305.00;;;;5072237;28;20193;-68
2023/06/11 14:13:52;;;;;;;1.45;1.17;;;32.30;93.00;35.10;101310.00;;;;5063692;28;20636;-68
2023/06/11 14:16:53;;;;;;;0.98;0.98;;;32.10;93.50;35.80;101306.00;;;;5071347;28;20224;-68
2023/06/11 14:19:46;;;;;;;1.67;1.58;;;32.30;93.60;36.50;101282.00;;;;5064095;28;20227;-69
2023/06/11 14:22:16;;;;;;;0.60;0.60;;;32.50;93.20;35.80;101293.00;;;;5067197;28;20285;-69
2023/06/11 14:25:35;;;;;;;0.20;0.20;;;32.50;93.10;35.80;101297.00;;;;5071750;28;20185;-68
2023/06/11 14:28:10;;;;;;;1.40;1.33;;;32.10;93.60;35.00;101266.00;;;;5071290;28;20193;-68
2023/06/11 14:30:59;;;;;;;0.20;0.20;;;31.80;93.00;36.10;101284.00;;;;5071193;28;20204;-70
2023/06/11 14:33:53;;;;;;;1.67;0.80;;;32.20;92.50;36.10;101279.00;;;;5065507;28;20181;-68
2023/06/11 14:36:19;;;;;;;0.35;0.35;;;32.50;92.40;35.30;101295.00;;;;5071037;28;20189;-68
2023/06/11 14:38:45;;;;;;;2.67;1.33;;;32.50;92.20;35.70;101279.00;;;;5071309;28;20189;-69
2023/06/11 14:41:11;;;;;;;1.02;0.68;;;32.60;92.70;36.30;101280.00;;;;5070827;28;20193;-68
2023/06/11 14:43:37;;;;;;;0.73;0.73;;;32.60;92.10;36.10;101288.00;;;;5071742;28;20196;-68
2023/06/11 14:46:03;;;;;;;0.80;0.80;;;32.50;92.50;35.80;101282.00;;;;5071755;28;20691;-68
2023/06/11 14:48:30;;;;;;;1.23;1.15;;;32.30;93.00;36.20;101277.00;;;;5069259;28;20639;-68
2023/06/11 14:50:56;;;;;;;1.15;1.05;;;32.40;93.00;36.00;101272.00;;;;5054796;28;20193;-68
2023/06/11 14:53:24;;;;;;;1.30;0.90;;;32.40;92.70;35.40;101282.00;;;;5071348;28;20220;-68
2023/06/11 14:55:51;;;;;;;1.65;1.60;;;32.30;93.00;35.30;101275.00;;;;5068057;28;20186;-68
2023/06/11 14:58:17;;;;;;;0.95;0.95;;;32.00;93.70;35.00;101273.00;;;;5064757;28;20185;-68
2023/06/11 15:00:43;;;;;;;1.00;0.77;;;31.80;93.70;35.80;101256.00;;;;5071422;28;20223;-68
2023/06/11 15:03:10;;;;;;;1.35;1.25;;;31.90;93.70;36.20;101259.00;;;;5071408;28;20220;-68
2023/06/11 15:05:39;;;;;;;1.33;1.20;;;32.30;94.80;35.70;101229.00;;;;5054223;28;20189;-68
2023/06/11 15:08:22;;;;;;;0.93;0.90;;;32.20;94.90;36.00;101260.00;;;;5071225;28;20288;-68
2023/06/11 15:10:49;;;;;;;1.60;1.60;;;32.30;94.90;35.50;101265.00;;;;5072551;28;20178;-68
2023/06/11 15:13:40;;;;;;;0.95;0.95;;;32.10;94.90;34.70;101271.00;;;;5072432;28;20659;-68
2023/06/11 15:16:11;;;;;;;1.33;1.23;;;31.80;94.30;34.20;101219.00;;;;5070512;28;20185;-67
2023/06/11 15:18:37;;;;;;;1.95;1.17;;;31.40;94.50;35.10;101267.00;;;;5071702;28;20200;-68
2023/06/11 15:21:30;;;;;;;1.42;0.93;;;31.50;95.00;34.50;101260.00;;;;5075558;28;20671;-67
2023/06/11 15:24:19;;;;;;;0.30;0.30;;;31.60;94.10;35.10;101257.00;;;;5073982;28;20189;-68
2023/06/11 15:26:50;;;;;;;0.40;0.40;;;31.60;94.40;35.00;101256.00;;;;5075228;28;20186;-68
2023/06/11 15:29:26;;;;;;;0.95;0.95;;;31.50;94.50;35.60;101248.00;;;;5069969;28;20177;-68
2023/06/11 15:31:58;;;;;;;2.25;1.40;;;31.70;94.10;34.50;101214.00;;;;5057992;28;20263;-67
2023/06/11 15:34:24;;;;;;;0.60;0.60;;;31.50;94.00;35.00;101201.00;;;;5075186;28;20177;-68
2023/06/11 15:36:50;;;;;;;0.10;0.10;;;31.50;93.90;35.30;101247.00;;;;5074364;28;20208;-68
2023/06/11 15:39:27;;;;;;;0.75;0.65;;;31.50;94.20;35.30;101235.00;;;;5074914;28;20727;-68
2023/06/11 15:42:00;;;;;;;0.68;0.68;;;31.60;94.00;34.70;101249.00;;;;5074158;28;20188;-67
2023/06/11 15:44:35;;;;;;;1.83;1.38;;;31.50;93.50;34.70;101245.00;;;;5074191;28;20185;-68
2023/06/11 15:47:21;;;;;;;0.10;0.10;;;31.40;93.80;35.80;101230.00;;;;5071853;28;20707;-69
2023/06/11 15:50:12;;;;;;;0.40;0.40;;;31.60;93.80;35.90;101230.00;;;;5074645;28;20189;-71
2023/06/11 15:52:58;;;;;;;1.52;1.42;;;31.80;94.00;35.90;101233.00;;;;5068423;28;20197;-69
2023/06/11 15:55:44;;;;;;;0.10;0.10;;;32.00;94.20;35.60;101244.00;;;;5074401;28;20185;-70
2023/06/11 15:58:35;;;;;;;0.88;0.88;;;31.90;94.50;35.00;101242.00;;;;5063609;28;20188;-71
2023/06/11 16:01:01;;;;;;;0.60;0.60;;;31.80;94.70;35.20;101241.00;;;;5073899;28;20231;-70
2023/06/11 16:03:33;;;;;;;2.28;1.48;;;31.90;94.70;35.50;101243.00;;;;5074352;28;20217;-70
2023/06/11 16:06:18;;;;;;;0.22;0.22;;;31.90;94.40;34.50;101246.00;;;;5075122;28;20196;-68
2023/06/11 16:08:44;;;;;;;0.80;0.73;;;31.90;94.30;35.80;101234.00;;;;5074353;28;20185;-72
2023/06/11 16:11:26;;;;;;;2.40;1.50;;;31.80;94.60;35.40;101199.00;;;;5074587;28;20654;-72
2023/06/11 16:14:14;;;;;;;1.13;0.95;;;31.90;94.00;35.50;101245.00;;;;5064902;28;20181;-72
2023/06/11 16:17:32;;;;;;;0.20;0.20;;;32.10;93.50;35.00;101213.00;;;;5066640;28;20273;-71
2023/06/11 16:20:31;;;;;;;1.60;1.40;;;31.70;93.50;34.10;101246.00;;;;5073694;28;20243;-72
2023/06/11 16:23:42;;;;;;;0.73;0.73;;;31.30;93.80;34.30;101237.00;;;;5073330;28;20186;-71
2023/06/11 16:27:04;;;;;;;1.30;1.23;;;31.40;93.70;34.70;101243.00;;;;5066183;28;20189;-71
2023/06/11 16:29:45;;;;;;;0.85;0.85;;;31.50;93.80;35.10;101230.00;;;;5068906;28;20543;-71
2023/06/11 16:32:14;;;;;;;1.02;1.02;;;31.60;93.70;36.10;101234.00;;;;5072648;28;20262;-72
2023/06/11 16:35:21;;;;;;;0.82;0.45;;;32.00;93.60;35.80;101240.00;;;;5074083;28;20199;-72
2023/06/11 16:37:50;;;;;;;0.20;0.20;;;32.00;93.70;36.60;101204.00;;;;5069278;28;20216;-71
2023/06/11 16:40:36;;;;;;;0.52;0.50;;;32.20;94.00;36.30;101224.00;;;;5073426;28;20189;-72
2023/06/11 16:43:04;;;;;;;0.28;0.28;;;32.20;93.90;35.90;101226.00;;;;5073361;28;20284;-71
2023/06/11 16:45:40;;;;;;;0.30;0.30;;;32.10;94.00;35.60;101232.00;;;;5055979;28;20213;-71
2023/06/11 16:48:32;;;;;;;0.68;0.68;;;31.80;93.90;36.40;101237.00;;;;5074426;28;20181;-71
2023/06/11 16:51:28;;;;;;;0.65;0.65;;;32.10;94.00;35.50;101225.00;;;;5053166;28;20178;-72
2023/06/11 16:54:17;;;;;;;0.40;0.40;;;31.90;93.80;35.20;101239.00;;;;5053465;28;20173;-72
2023/06/11 16:56:51;;;;;;;0.55;0.55;;;31.60;93.70;34.50;101239.00;;;;5071788;28;20582;-71
2023/06/11 16:59:37;;;;;;;0.35;0.35;;;31.50;93.50;35.30;101215.00;;;;5072001;28;20205;-71
2023/06/11 17:02:11;;;;;;;0.60;0.60;;;31.50;93.70;35.00;101199.00;;;;5057640;28;20299;-71
2023/06/11 17:04:44;;;;;;;0.77;0.52;;;31.40;93.30;35.10;101232.00;;;;5056531;28;20197;-71
2023/06/11 17:07:17;;;;;;;0.98;0.90;;;31.50;93.50;35.00;101229.00;;;;5063683;28;20178;-71
2023/06/11 17:09:55;;;;;;;0.25;0.25;;;31.50;93.60;34.80;101242.00;;;;5072434;28;20268;-71
2023/06/11 17:12:45;;;;;;;1.70;0.93;;;31.20;93.60;35.20;101244.00;;;;5071764;28;20671;-71
2023/06/11 17:15:20;;;;;;;1.60;1.50;;;31.30;93.30;33.50;101204.00;;;;5069958;28;20272;-71
2023/06/11 17:18:12;;;;;;;0.30;0.30;;;30.90;93.00;35.40;101223.00;;;;5055335;28;20208;-71
2023/06/11 17:21:16;;;;;;;0.95;0.95;;;31.20;94.00;35.20;101234.00;;;;5056070;28;20182;-71
2023/06/11 17:23:42;;;;;;;0.10;0.10;;;31.30;93.90;34.80;101226.00;;;;5071212;28;20246;-71
2023/06/11 17:26:33;;;;;;;0.30;0.30;;;31.20;94.30;33.90;101230.00;;;;5069854;28;20553;-71
2023/06/11 17:29:24;;;;;;;0.20;0.20;;;30.90;94.70;34.00;101195.00;;;;5072389;28;20185;-72
2023/06/11 17:32:13;;;;;;;0.30;0.30;;;30.60;95.20;34.00;101233.00;;;;5098595;28;20217;-72
2023/06/11 17:35:14;;;;;;;0.30;0.30;;;30.60;95.20;34.60;101219.00;;;;5063084;28;20184;-72
2023/06/11 17:38:21;;;;;;;1.27;1.17;;;30.80;95.30;34.20;101236.00;;;;5065423;28;20215;-69
2023/06/11 17:41:29;;;;;;;0.40;0.40;;;30.90;95.00;35.50;101217.00;;;;5061075;28;20181;-68
2023/06/11 17:44:04;;;;;;;2.25;2.10;;;31.20;95.50;35.70;101218.00;;;;5072075;28;20563;-70
2023/06/11 17:46:32;;;;;;;0.63;0.63;;;31.50;95.40;34.90;101191.00;;;;5072373;28;20185;-68
2023/06/11 17:48:59;;;;;;;0.50;0.50;;;31.50;94.90;33.90;101226.00;;;;5055729;28;20196;-68
2023/06/11 17:51:28;;;;;;;4.80;1.90;;;31.00;94.50;33.90;101230.00;;;;5072814;28;20247;-68
2023/06/11 17:54:13;;;;;;;0.95;0.65;;;30.80;94.50;33.90;101185.00;;;;5055787;28;20208;-68
2023/06/11 17:56:42;;;;;;;3.05;1.73;;;30.80;94.60;33.60;101231.00;;;;5071567;28;20213;-68
2023/06/11 17:59:34;;;;;;;1.05;0.98;;;30.70;94.50;33.50;101237.00;;;;5070648;28;20721;-68
2023/06/11 18:02:03;;;;;;;0.15;0.15;;;30.50;94.40;34.00;101244.00;;;;5072226;28;20201;-68
2023/06/11 18:04:29;;;;;;;0.32;0.32;;;30.40;94.70;33.80;101245.00;;;;5068605;28;20229;-68
2023/06/11 18:06:55;;;;;;;0.73;0.70;;;30.50;94.60;33.40;101255.00;;;;5070415;28;20192;-68
2023/06/11 18:09:42;;;;;;;0.77;0.77;;;30.40;94.40;33.40;101267.00;;;;5073117;28;20269;-68
2023/06/11 18:12:48;;;;;;;1.70;1.60;;;30.30;94.40;33.50;101263.00;;;;5072321;28;20641;-68
2023/06/11 18:15:19;;;;;;;1.38;1.27;;;30.40;94.60;33.70;101255.00;;;;5066029;28;20193;-68
2023/06/11 18:17:49;;;;;;;0.25;0.25;;;30.40;94.50;34.00;101264.00;;;;5071809;28;20319;-68
2023/06/11 18:20:20;;;;;;;0.40;0.40;;;30.30;94.60;34.10;101251.00;;;;5074123;28;20252;-68
2023/06/11 18:22:49;;;;;;;1.55;1.45;;;30.40;94.50;34.20;101258.00;;;;5063118;28;20193;-68
2023/06/11 18:25:33;;;;;;;1.65;1.55;;;30.50;94.30;33.80;101268.00;;;;5070967;28;20197;-67
2023/06/11 18:27:59;;;;;;;0.93;0.85;;;30.40;94.50;33.70;101262.00;;;;5071636;28;20196;-66
2023/06/11 18:30:27;;;;;;;0.75;0.75;;;30.30;94.30;33.70;101268.00;;;;5071089;28;20181;-67
2023/06/11 18:32:53;;;;;;;0.30;0.30;;;30.40;94.40;34.00;101280.00;;;;5071038;28;20213;-67
2023/06/11 18:35:39;;;;;;;1.75;0.55;;;30.30;94.40;34.20;101238.00;;;;5072459;28;20185;-67
2023/06/11 18:38:05;;;;;;;1.27;1.23;;;30.50;94.20;34.10;101261.00;;;;5071549;28;20192;-67
2023/06/11 18:40:33;;;;;;;1.15;0.80;;;30.50;94.30;33.20;101279.00;;;;5071264;28;20177;-67
2023/06/11 18:43:01;;;;;;;1.08;0.75;;;30.20;94.20;33.60;101267.00;;;;5079464;28;20709;-67
2023/06/11 18:45:31;;;;;;;0.82;0.77;;;30.30;94.20;33.40;101270.00;;;;5071695;28;20189;-67
2023/06/11 18:47:58;;;;;;;1.10;1.10;;;30.10;94.40;34.20;101284.00;;;;5072651;28;20174;-67
2023/06/11 18:50:25;;;;;;;2.03;1.83;;;30.20;94.30;33.50;101291.00;;;;5071271;28;20704;-67
2023/06/11 18:53:12;;;;;;;13.60;7.15;;;30.00;98.90;29.50;101317.00;;;;5055156;28;20197;-68
2023/06/11 18:55:39;;;;;;;3.90;2.15;;;27.80;99.90;28.00;101346.00;;;;5054126;28;20416;-73